createdAt,value
2022-12-28T00:00:29.807Z,53.98
2022-12-28T00:01:33.917Z,53.82
2022-12-28T00:02:35.652Z,53.99
2022-12-28T00:03:37.486Z,53.73
2022-12-28T00:04:39.313Z,54.00
2022-12-28T00:05:41.211Z,53.65
2022-12-28T00:06:42.897Z,53.79
2022-12-28T00:07:45.061Z,53.80
2022-12-28T00:08:46.991Z,53.47
2022-12-28T00:09:48.814Z,54.18
2022-12-28T00:11:09.073Z,53.73
2022-12-28T00:12:12.284Z,54.00
2022-12-28T00:13:14.253Z,54.04
2022-12-28T00:14:15.920Z,53.95
2022-12-28T00:15:17.473Z,53.77
2022-12-28T00:16:31.864Z,53.94
2022-12-28T00:17:33.613Z,53.92
2022-12-28T00:18:36.687Z,53.78
2022-12-28T00:19:38.356Z,53.96
2022-12-28T00:20:39.935Z,53.93
2022-12-28T00:21:42.635Z,53.76
2022-12-28T00:22:45.011Z,53.96
2022-12-28T00:23:53.053Z,53.78
2022-12-28T00:24:54.844Z,53.94
2022-12-28T00:25:57.044Z,53.62
2022-12-28T00:26:59.101Z,54.22
2022-12-28T00:28:00.657Z,54.24
2022-12-28T00:29:05.777Z,53.97
2022-12-28T00:30:08.459Z,53.92
2022-12-28T00:31:10.197Z,53.61
2022-12-28T00:32:11.731Z,53.97
2022-12-28T00:33:14.683Z,54.15
2022-12-28T00:34:17.421Z,53.71
2022-12-28T00:35:18.925Z,54.19
2022-12-28T00:36:20.592Z,53.74
2022-12-28T00:37:22.724Z,53.90
2022-12-28T00:38:25.693Z,53.73
2022-12-28T00:39:28.114Z,53.83
2022-12-28T00:40:29.703Z,53.81
2022-12-28T00:41:31.564Z,54.17
2022-12-28T00:42:33.291Z,54.05
2022-12-28T00:43:35.551Z,54.04
2022-12-28T00:44:37.196Z,53.83
2022-12-28T00:45:39.421Z,54.14
2022-12-28T00:46:41.556Z,53.76
2022-12-28T00:47:43.434Z,53.95
2022-12-28T00:48:45.119Z,54.28
2022-12-28T00:49:46.637Z,54.20
2022-12-28T00:50:48.320Z,54.00
2022-12-28T00:51:50.319Z,53.81
2022-12-28T00:52:51.908Z,53.79
2022-12-28T00:53:53.855Z,53.84
2022-12-28T00:54:55.540Z,54.04
2022-12-28T00:56:05.334Z,54.23
2022-12-28T00:57:06.937Z,53.86
2022-12-28T00:58:08.955Z,54.21
2022-12-28T00:59:11.655Z,54.05
2022-12-28T01:00:14.518Z,53.87
2022-12-28T01:01:20.539Z,54.10
2022-12-28T01:02:22.648Z,53.98
2022-12-28T01:03:24.212Z,54.00
2022-12-28T01:04:25.863Z,54.20
2022-12-28T01:05:28.130Z,54.31
2022-12-28T01:06:30.040Z,54.01
2022-12-28T01:07:31.812Z,54.13
2022-12-28T01:08:35.627Z,54.05
2022-12-28T01:09:37.385Z,54.14
2022-12-28T01:10:39.656Z,54.12
2022-12-28T01:11:41.162Z,54.19
2022-12-28T01:12:43.284Z,53.84
2022-12-28T01:13:45.521Z,54.33
2022-12-28T01:14:47.234Z,54.18
2022-12-28T01:15:48.803Z,53.99
2022-12-28T01:16:50.460Z,54.35
2022-12-28T01:17:56.625Z,54.43
2022-12-28T01:19:00.525Z,54.21
2022-12-28T01:20:02.301Z,54.57
2022-12-28T01:21:12.055Z,54.14
2022-12-28T01:22:14.471Z,53.98
2022-12-28T01:23:16.289Z,54.04
2022-12-28T01:24:18.385Z,54.27
2022-12-28T01:25:20.302Z,54.19
2022-12-28T01:26:22.909Z,54.51
2022-12-28T01:27:24.734Z,54.59
2022-12-28T01:28:26.252Z,54.36
2022-12-28T01:29:28.177Z,54.51
2022-12-28T01:30:30.818Z,54.05
2022-12-28T01:31:32.572Z,54.13
2022-12-28T01:32:34.336Z,54.56
2022-12-28T01:33:36.079Z,54.43
2022-12-28T01:34:37.676Z,54.11
2022-12-28T01:35:39.376Z,54.49
2022-12-28T01:36:40.945Z,54.57
2022-12-28T01:37:42.758Z,54.28
2022-12-28T01:38:45.692Z,54.35
2022-12-28T01:39:47.475Z,54.38
2022-12-28T01:40:50.172Z,54.05
2022-12-28T01:41:52.278Z,54.39
2022-12-28T01:42:53.870Z,54.33
2022-12-28T01:43:55.471Z,54.19
2022-12-28T01:44:57.043Z,54.49
2022-12-28T01:45:58.690Z,54.38
2022-12-28T01:47:06.984Z,54.67
2022-12-28T01:48:20.129Z,54.56
2022-12-28T01:49:29.660Z,54.56
2022-12-28T01:50:31.209Z,54.14
2022-12-28T01:51:58.632Z,54.71
2022-12-28T01:53:03.925Z,54.55
2022-12-28T01:54:05.619Z,54.39
2022-12-28T01:55:07.505Z,54.50
2022-12-28T01:56:09.357Z,54.57
2022-12-28T01:57:11.827Z,54.56
2022-12-28T01:58:24.853Z,54.41
2022-12-28T01:59:30.566Z,54.71
2022-12-28T02:00:33.349Z,54.62
2022-12-28T02:01:35.322Z,54.31
2022-12-28T02:02:37.755Z,54.54
2022-12-28T02:03:39.673Z,54.22
2022-12-28T02:04:41.654Z,54.40
2022-12-28T02:05:46.426Z,54.35
2022-12-28T02:06:48.385Z,54.43
2022-12-28T02:07:57.517Z,54.58
2022-12-28T02:09:04.711Z,54.64
2022-12-28T02:10:41.173Z,54.40
2022-12-28T02:11:29.463Z,54.61
2022-12-28T02:12:32.391Z,54.62
2022-12-28T02:13:35.002Z,54.68
2022-12-28T02:14:37.413Z,54.62
2022-12-28T02:15:39.078Z,54.68
2022-12-28T02:16:42.969Z,54.53
2022-12-28T02:17:44.783Z,54.38
2022-12-28T02:18:47.509Z,54.76
2022-12-28T02:19:49.390Z,54.72
2022-12-28T02:21:09.711Z,54.74
2022-12-28T02:22:20.599Z,54.78
2022-12-28T02:23:54.473Z,54.78
2022-12-28T02:25:13.095Z,54.29
2022-12-28T02:26:43.436Z,54.78
2022-12-28T02:27:54.759Z,54.53
2022-12-28T02:29:14.307Z,54.67
2022-12-28T02:30:17.106Z,54.37
2022-12-28T02:31:30.870Z,54.67
2022-12-28T02:32:51.429Z,54.76
2022-12-28T02:34:04.730Z,54.70
2022-12-28T02:35:18.704Z,54.48
2022-12-28T02:36:28.112Z,54.90
2022-12-28T02:37:36.470Z,54.43
2022-12-28T02:38:45.584Z,54.50
2022-12-28T02:39:59.964Z,54.37
2022-12-28T02:41:08.107Z,54.53
2022-12-28T02:42:10.477Z,54.46
2022-12-28T02:43:12.767Z,54.96
2022-12-28T02:44:34.780Z,54.74
2022-12-28T02:46:01.729Z,54.63
2022-12-28T02:47:27.551Z,54.61
2022-12-28T02:49:04.779Z,54.66
2022-12-28T02:50:11.003Z,54.99
2022-12-28T02:51:46.695Z,54.74
2022-12-28T02:53:06.981Z,54.66
2022-12-28T02:55:09.292Z,54.54
2022-12-28T02:56:41.607Z,54.64
2022-12-28T02:57:49.148Z,54.98
2022-12-28T02:59:04.243Z,55.04
2022-12-28T03:00:08.892Z,55.09
2022-12-28T03:01:26.574Z,54.66
2022-12-28T03:02:28.320Z,54.99
2022-12-28T03:03:56.423Z,54.83
2022-12-28T03:05:58.228Z,54.95
2022-12-28T03:07:23.044Z,54.51
2022-12-28T03:08:39.362Z,54.95
2022-12-28T03:09:58.767Z,54.88
2022-12-28T03:11:07.572Z,55.14
2022-12-28T03:12:20.966Z,54.48
2022-12-28T03:13:44.262Z,54.98
2022-12-28T03:14:54.083Z,54.90
2022-12-28T03:16:03.509Z,54.87
2022-12-28T03:17:25.977Z,55.11
2022-12-28T03:18:48.889Z,54.97
2022-12-28T03:20:14.692Z,55.06
2022-12-28T03:21:35.993Z,55.18
2022-12-28T03:22:58.834Z,54.97
2022-12-28T03:24:21.217Z,54.71
2022-12-28T03:25:46.419Z,54.63
2022-12-28T03:27:09.887Z,54.95
2022-12-28T03:28:34.684Z,54.94
2022-12-28T03:30:02.551Z,54.63
2022-12-28T03:31:10.239Z,54.73
2022-12-28T03:32:12.214Z,55.24
2022-12-28T03:33:14.385Z,54.87
2022-12-28T03:34:16.524Z,54.95
2022-12-28T03:35:21.098Z,54.84
2022-12-28T03:36:51.541Z,54.78
2022-12-28T03:38:00.194Z,55.00
2022-12-28T03:39:24.874Z,54.99
2022-12-28T03:40:32.389Z,55.17
2022-12-28T03:41:47.432Z,55.13
2022-12-28T03:43:10.213Z,55.03
2022-12-28T03:44:32.964Z,54.77
2022-12-28T03:46:03.090Z,54.94
2022-12-28T03:47:14.898Z,54.90
2022-12-28T03:48:17.909Z,55.04
2022-12-28T03:49:19.918Z,55.25
2022-12-28T03:50:24.486Z,54.81
2022-12-28T03:51:30.226Z,55.04
2022-12-28T03:52:32.869Z,54.75
2022-12-28T03:53:44.331Z,55.02
2022-12-28T03:54:46.256Z,55.05
2022-12-28T03:55:48.044Z,54.84
2022-12-28T03:56:51.562Z,55.31
2022-12-28T03:57:53.344Z,55.22
2022-12-28T03:58:56.147Z,54.90
2022-12-28T03:59:57.810Z,55.02
2022-12-28T04:00:59.593Z,55.07
2022-12-28T04:02:01.379Z,55.05
2022-12-28T04:03:03.099Z,54.85
2022-12-28T04:04:04.974Z,55.09
2022-12-28T04:05:07.239Z,55.05
2022-12-28T04:06:15.979Z,55.21
2022-12-28T04:07:17.663Z,54.89
2022-12-28T04:08:19.344Z,54.98
2022-12-28T04:09:22.380Z,54.99
2022-12-28T04:10:24.178Z,55.03
2022-12-28T04:11:26.602Z,55.08
2022-12-28T04:12:30.472Z,55.09
2022-12-28T04:13:32.311Z,55.10
2022-12-28T04:14:33.933Z,55.08
2022-12-28T04:15:35.617Z,55.05
2022-12-28T04:16:37.361Z,55.25
2022-12-28T04:17:39.287Z,54.95
2022-12-28T04:18:44.761Z,55.09
2022-12-28T04:19:46.284Z,55.28
2022-12-28T04:20:47.992Z,54.80
2022-12-28T04:21:49.832Z,54.92
2022-12-28T04:22:51.604Z,54.75
2022-12-28T04:23:53.490Z,54.98
2022-12-28T04:24:55.017Z,54.88
2022-12-28T04:26:03.060Z,54.89
2022-12-28T04:27:04.624Z,55.00
2022-12-28T04:28:06.155Z,54.73
2022-12-28T04:29:08.351Z,54.88
2022-12-28T04:30:10.399Z,55.05
2022-12-28T04:31:13.987Z,55.03
2022-12-28T04:32:16.064Z,55.29
2022-12-28T04:33:18.003Z,54.80
2022-12-28T04:34:19.635Z,55.23
2022-12-28T04:35:21.374Z,55.02
2022-12-28T04:36:22.920Z,54.80
2022-12-28T04:37:24.645Z,55.28
2022-12-28T04:38:26.683Z,55.10
2022-12-28T04:39:28.328Z,54.80
2022-12-28T04:40:49.954Z,55.09
2022-12-28T04:41:51.604Z,55.04
2022-12-28T04:42:53.840Z,54.94
2022-12-28T04:43:55.978Z,55.09
2022-12-28T04:44:57.447Z,55.20
2022-12-28T04:46:00.592Z,55.12
2022-12-28T04:47:02.279Z,55.41
2022-12-28T04:48:04.728Z,55.06
2022-12-28T04:49:06.481Z,54.86
2022-12-28T04:50:08.396Z,55.10
2022-12-28T04:51:23.478Z,55.27
2022-12-28T04:52:25.040Z,55.26
2022-12-28T04:53:26.743Z,55.34
2022-12-28T04:54:28.330Z,55.21
2022-12-28T04:55:32.301Z,55.40
2022-12-28T04:56:35.448Z,55.51
2022-12-28T04:57:37.257Z,54.95
2022-12-28T04:58:39.152Z,55.21
2022-12-28T04:59:41.268Z,55.32
2022-12-28T05:00:43.005Z,55.21
2022-12-28T05:01:45.013Z,55.50
2022-12-28T05:02:46.917Z,55.45
2022-12-28T05:03:55.494Z,55.47
2022-12-28T05:04:58.099Z,55.63
2022-12-28T05:06:05.336Z,55.85
2022-12-28T05:07:06.947Z,55.96
2022-12-28T05:08:08.560Z,55.77
2022-12-28T05:09:10.460Z,55.63
2022-12-28T05:10:12.056Z,55.57
2022-12-28T05:11:16.993Z,55.79
2022-12-28T05:12:21.279Z,55.90
2022-12-28T05:13:22.876Z,55.86
2022-12-28T05:14:24.419Z,56.20
2022-12-28T05:15:25.959Z,55.75
2022-12-28T05:16:29.252Z,55.78
2022-12-28T05:17:30.875Z,55.68
2022-12-28T05:18:32.609Z,56.05
2022-12-28T05:19:34.749Z,56.03
2022-12-28T05:20:36.328Z,56.16
2022-12-28T05:21:37.959Z,56.27
2022-12-28T05:22:41.180Z,56.09
2022-12-28T05:23:43.260Z,56.08
2022-12-28T05:24:44.894Z,56.22
2022-12-28T05:25:53.258Z,55.97
2022-12-28T05:26:54.909Z,56.08
2022-12-28T05:27:56.988Z,55.97
2022-12-28T05:28:59.111Z,56.13
2022-12-28T05:30:00.901Z,56.12
2022-12-28T05:31:05.722Z,56.05
2022-12-28T05:32:07.490Z,56.28
2022-12-28T05:33:09.212Z,56.10
2022-12-28T05:34:10.790Z,56.00
2022-12-28T05:35:12.334Z,56.24
2022-12-28T05:36:19.601Z,56.28
2022-12-28T05:37:22.303Z,56.36
2022-12-28T05:38:24.072Z,56.23
2022-12-28T05:39:25.664Z,56.17
2022-12-28T05:40:27.591Z,56.24
2022-12-28T05:41:30.270Z,56.20
2022-12-28T05:42:32.887Z,56.41
2022-12-28T05:43:34.959Z,56.22
2022-12-28T05:44:36.909Z,56.34
2022-12-28T05:45:38.554Z,56.18
2022-12-28T05:46:40.427Z,56.24
2022-12-28T05:47:42.674Z,56.25
2022-12-28T05:48:44.319Z,56.35
2022-12-28T05:49:47.206Z,55.99
2022-12-28T05:50:48.839Z,56.22
2022-12-28T05:51:52.044Z,56.17
2022-12-28T05:52:53.862Z,56.49
2022-12-28T05:53:56.717Z,56.28
2022-12-28T05:54:58.235Z,56.00
2022-12-28T05:56:14.433Z,56.48
2022-12-28T05:57:16.292Z,56.44
2022-12-28T05:58:17.840Z,56.32
2022-12-28T05:59:19.824Z,55.91
2022-12-28T06:00:21.822Z,56.02
2022-12-28T06:01:26.821Z,55.96
2022-12-28T06:02:28.609Z,56.14
2022-12-28T06:03:30.331Z,55.85
2022-12-28T06:04:32.043Z,55.89
2022-12-28T06:05:34.684Z,55.96
2022-12-28T06:06:36.809Z,56.06
2022-12-28T06:07:38.614Z,55.85
2022-12-28T06:08:41.576Z,55.89
2022-12-28T06:09:43.346Z,56.21
2022-12-28T06:10:44.857Z,55.97
2022-12-28T06:11:46.460Z,56.37
2022-12-28T06:12:47.950Z,55.57
2022-12-28T06:13:50.718Z,56.15
2022-12-28T06:14:52.473Z,56.21
2022-12-28T06:15:54.007Z,56.09
2022-12-28T06:16:55.561Z,56.06
2022-12-28T06:17:57.167Z,56.18
2022-12-28T06:18:59.467Z,56.19
2022-12-28T06:20:01.029Z,55.99
2022-12-28T06:21:28.663Z,56.23
2022-12-28T06:22:30.269Z,56.32
2022-12-28T06:23:32.329Z,56.21
2022-12-28T06:24:34.129Z,56.26
2022-12-28T06:25:37.500Z,56.11
2022-12-28T06:26:41.091Z,55.92
2022-12-28T06:27:42.753Z,55.97
2022-12-28T06:28:45.424Z,56.00
2022-12-28T06:29:46.998Z,56.06
2022-12-28T06:30:52.484Z,55.78
2022-12-28T06:31:56.478Z,56.16
2022-12-28T06:32:58.319Z,55.68
2022-12-28T06:34:01.229Z,56.30
2022-12-28T06:35:03.213Z,55.81
2022-12-28T06:36:05.468Z,56.08
2022-12-28T06:37:07.364Z,56.00
2022-12-28T06:38:09.714Z,55.86
2022-12-28T06:39:13.662Z,56.02
2022-12-28T06:40:15.919Z,56.13
2022-12-28T06:41:19.483Z,55.90
2022-12-28T06:42:21.280Z,56.07
2022-12-28T06:43:22.853Z,56.04
2022-12-28T06:44:24.546Z,55.93
2022-12-28T06:45:26.726Z,56.26
2022-12-28T06:46:30.803Z,55.97
2022-12-28T06:47:33.812Z,56.38
2022-12-28T06:48:36.354Z,56.24
2022-12-28T06:49:38.117Z,55.75
2022-12-28T06:50:40.327Z,56.25
2022-12-28T06:51:42.453Z,56.11
2022-12-28T06:52:44.501Z,56.00
2022-12-28T06:53:47.451Z,56.29
2022-12-28T06:54:49.427Z,56.24
2022-12-28T06:56:00.510Z,56.11
2022-12-28T06:57:02.180Z,56.06
2022-12-28T06:58:03.778Z,56.03
2022-12-28T06:59:06.487Z,56.13
2022-12-28T07:00:08.909Z,56.16
2022-12-28T07:01:22.012Z,55.99
2022-12-28T07:02:24.021Z,56.22
2022-12-28T07:03:25.968Z,56.11
2022-12-28T07:04:28.085Z,56.15
2022-12-28T07:05:31.933Z,56.35
2022-12-28T07:06:39.068Z,56.34
2022-12-28T07:07:40.685Z,56.00
2022-12-28T07:08:43.029Z,56.13
2022-12-28T07:09:44.658Z,56.04
2022-12-28T07:10:46.748Z,55.97
2022-12-28T07:11:50.657Z,56.07
2022-12-28T07:12:52.198Z,56.16
2022-12-28T07:13:53.955Z,56.25
2022-12-28T07:14:55.587Z,56.20
2022-12-28T07:15:57.538Z,56.08
2022-12-28T07:16:59.181Z,55.86
2022-12-28T07:18:00.798Z,56.31
2022-12-28T07:19:02.543Z,56.23
2022-12-28T07:20:04.727Z,55.99
2022-12-28T07:21:15.178Z,56.03
2022-12-28T07:22:16.813Z,55.99
2022-12-28T07:23:18.379Z,56.06
2022-12-28T07:24:20.324Z,56.03
2022-12-28T07:25:21.887Z,56.01
2022-12-28T07:26:26.670Z,55.86
2022-12-28T07:27:28.339Z,56.13
2022-12-28T07:28:29.971Z,55.99
2022-12-28T07:29:32.001Z,55.95
2022-12-28T07:30:34.218Z,56.30
2022-12-28T07:31:44.607Z,56.34
2022-12-28T07:32:47.999Z,56.28
2022-12-28T07:33:52.180Z,55.93
2022-12-28T07:34:53.829Z,56.29
2022-12-28T07:35:58.338Z,55.92
2022-12-28T07:37:00.398Z,55.65
2022-12-28T07:38:02.041Z,55.82
2022-12-28T07:39:03.821Z,55.75
2022-12-28T07:40:06.162Z,55.75
2022-12-28T07:41:11.037Z,55.65
2022-12-28T07:42:12.776Z,55.32
2022-12-28T07:43:14.791Z,55.71
2022-12-28T07:44:16.352Z,55.66
2022-12-28T07:45:17.945Z,55.98
2022-12-28T07:46:24.924Z,56.01
2022-12-28T07:47:26.698Z,55.64
2022-12-28T07:48:32.724Z,55.90
2022-12-28T07:49:34.462Z,55.65
2022-12-28T07:50:38.192Z,55.81
2022-12-28T07:51:40.031Z,55.83
2022-12-28T07:52:41.684Z,55.73
2022-12-28T07:53:45.565Z,55.79
2022-12-28T07:54:47.086Z,55.83
2022-12-28T07:55:56.854Z,55.83
2022-12-28T07:56:59.056Z,55.61
2022-12-28T07:58:00.587Z,55.76
2022-12-28T07:59:04.866Z,55.72
2022-12-28T08:00:07.487Z,55.87
2022-12-28T08:01:14.623Z,55.85
2022-12-28T08:02:16.431Z,55.84
2022-12-28T08:03:19.797Z,55.71
2022-12-28T08:04:21.524Z,55.61
2022-12-28T08:05:23.437Z,56.19
2022-12-28T08:06:26.429Z,55.94
2022-12-28T08:07:29.797Z,56.07
2022-12-28T08:08:34.963Z,55.90
2022-12-28T08:09:36.879Z,55.93
2022-12-28T08:10:38.597Z,55.98
2022-12-28T08:11:43.149Z,55.62
2022-12-28T08:12:44.761Z,55.88
2022-12-28T08:13:48.725Z,55.83
2022-12-28T08:14:50.316Z,55.96
2022-12-28T08:15:55.480Z,55.58
2022-12-28T08:16:57.284Z,55.79
2022-12-28T08:17:59.223Z,55.93
2022-12-28T08:19:03.363Z,55.92
2022-12-28T08:20:05.946Z,56.30
2022-12-28T08:21:14.331Z,56.43
2022-12-28T08:22:16.209Z,55.93
2022-12-28T08:23:17.829Z,56.24
2022-12-28T08:24:20.006Z,56.22
2022-12-28T08:25:21.723Z,56.25
2022-12-28T08:26:29.752Z,56.00
2022-12-28T08:27:38.193Z,56.18
2022-12-28T08:28:40.983Z,56.39
2022-12-28T08:29:42.558Z,56.35
2022-12-28T08:30:44.319Z,56.16
2022-12-28T08:31:46.741Z,56.46
2022-12-28T08:32:48.362Z,56.22
2022-12-28T08:33:50.767Z,56.26
2022-12-28T08:34:52.388Z,56.23
2022-12-28T08:35:56.873Z,56.40
2022-12-28T08:36:58.475Z,56.34
2022-12-28T08:38:00.057Z,56.63
2022-12-28T08:39:02.774Z,56.44
2022-12-28T08:40:05.008Z,56.33
2022-12-28T08:41:08.675Z,56.68
2022-12-28T08:42:11.819Z,56.70
2022-12-28T08:43:13.634Z,56.44
2022-12-28T08:44:15.351Z,56.48
2022-12-28T08:45:16.975Z,56.47
2022-12-28T08:46:30.746Z,56.85
2022-12-28T08:47:32.905Z,56.85
2022-12-28T08:48:35.287Z,56.66
2022-12-28T08:49:37.060Z,56.97
2022-12-28T08:50:38.803Z,56.86
2022-12-28T08:51:42.161Z,56.91
2022-12-28T08:52:43.988Z,56.55
2022-12-28T08:53:46.288Z,57.01
2022-12-28T08:54:47.927Z,56.65
2022-12-28T08:55:50.502Z,56.80
2022-12-28T08:56:53.530Z,56.60
2022-12-28T08:57:55.299Z,56.68
2022-12-28T09:02:02.813Z,47.03
2022-12-28T09:03:04.838Z,50.63
2022-12-28T09:04:09.459Z,53.06
2022-12-28T09:05:11.472Z,53.85
2022-12-28T09:06:16.182Z,54.37
2022-12-28T09:07:17.874Z,56.51
2022-12-28T09:08:19.749Z,57.20
2022-12-28T09:09:22.133Z,58.31
2022-12-28T09:10:24.053Z,59.65
2022-12-28T09:11:26.446Z,59.49
2022-12-28T09:12:28.237Z,60.03
2022-12-28T09:13:30.358Z,60.58
2022-12-28T09:14:32.023Z,61.25
2022-12-28T09:15:33.725Z,61.38
2022-12-28T09:16:39.362Z,61.18
2022-12-28T09:17:41.115Z,61.42
2022-12-28T09:18:44.684Z,61.25
2022-12-28T09:19:46.458Z,61.78
2022-12-28T09:20:48.250Z,62.23
2022-12-28T09:21:52.657Z,62.28
2022-12-28T09:22:54.659Z,61.32
2022-12-28T09:23:57.136Z,60.62
2022-12-28T09:24:59.160Z,60.88
2022-12-28T09:26:28.795Z,60.21
2022-12-28T09:27:31.566Z,60.04
2022-12-28T09:28:33.857Z,59.53
2022-12-28T09:29:35.805Z,59.34
2022-12-28T09:30:37.703Z,57.34
2022-12-28T09:31:40.713Z,57.46
2022-12-28T09:32:43.135Z,55.89
2022-12-28T09:35:25.159Z,55.02
2022-12-28T09:36:39.234Z,53.38
2022-12-28T09:37:41.045Z,52.71
2022-12-28T09:38:43.767Z,52.31
2022-12-28T09:39:46.157Z,52.52
2022-12-28T09:40:48.303Z,50.38
2022-12-28T09:41:52.764Z,50.08
2022-12-28T09:42:56.045Z,49.03
2022-12-28T09:44:09.976Z,51.02
2022-12-28T09:45:12.956Z,50.11
2022-12-28T09:46:18.748Z,50.47
2022-12-28T09:47:30.977Z,50.55
2022-12-28T09:48:35.075Z,51.36
2022-12-28T09:49:45.144Z,51.45
2022-12-28T09:50:48.081Z,51.78
2022-12-28T09:51:57.622Z,52.69
2022-12-28T09:53:17.470Z,52.84
2022-12-28T09:54:19.754Z,52.98
2022-12-28T09:55:21.722Z,52.53
2022-12-28T09:56:29.863Z,52.67
2022-12-28T09:57:38.228Z,52.91
2022-12-28T09:58:46.421Z,53.61
2022-12-28T09:59:52.344Z,53.53
2022-12-28T10:00:57.375Z,53.57
2022-12-28T10:02:03.253Z,52.91
2022-12-28T10:03:19.945Z,53.39
2022-12-28T10:04:21.999Z,51.38
2022-12-28T10:05:24.142Z,51.32
2022-12-28T10:06:28.437Z,48.47
2022-12-28T10:07:30.380Z,48.76
2022-12-28T10:08:38.183Z,50.48
2022-12-28T10:09:39.995Z,51.67
2022-12-28T10:10:48.374Z,51.88
2022-12-28T10:11:50.746Z,52.12
2022-12-28T10:12:53.146Z,52.28
2022-12-28T10:14:00.647Z,52.24
2022-12-28T10:15:02.516Z,52.31
2022-12-28T10:16:06.738Z,53.86
2022-12-28T10:17:12.619Z,53.84
2022-12-28T10:18:15.437Z,53.98
2022-12-28T10:19:24.698Z,54.65
2022-12-28T10:20:26.654Z,54.15
2022-12-28T10:21:33.582Z,54.36
2022-12-28T10:22:48.016Z,54.12
2022-12-28T10:24:29.765Z,55.47
2022-12-28T10:25:19.409Z,54.48
2022-12-28T10:26:21.163Z,55.40
2022-12-28T10:27:24.999Z,55.34
2022-12-28T10:28:33.596Z,56.00
2022-12-28T10:29:35.452Z,55.43
2022-12-28T10:30:49.027Z,54.77
2022-12-28T10:32:14.725Z,55.13
2022-12-28T10:33:19.314Z,56.76
2022-12-28T10:34:22.736Z,54.84
2022-12-28T10:35:41.202Z,55.72
2022-12-28T10:36:43.839Z,55.37
2022-12-28T10:37:45.652Z,55.40
2022-12-28T10:38:56.843Z,56.36
2022-12-28T10:40:01.991Z,55.13
2022-12-28T10:41:05.866Z,54.83
2022-12-28T10:42:21.082Z,54.84
2022-12-28T10:43:23.113Z,55.16
2022-12-28T10:44:43.153Z,55.02
2022-12-28T10:45:52.394Z,55.37
2022-12-28T10:46:59.750Z,55.53
2022-12-28T10:48:03.213Z,54.92
2022-12-28T10:49:08.692Z,55.57
2022-12-28T10:50:38.134Z,54.48
2022-12-28T10:52:03.820Z,54.18
2022-12-28T10:53:16.016Z,55.42
2022-12-28T10:54:27.559Z,56.06
2022-12-28T10:55:33.474Z,52.90
2022-12-28T10:56:48.639Z,52.46
2022-12-28T10:58:27.359Z,52.03
2022-12-28T10:59:15.590Z,52.84
2022-12-28T11:00:22.197Z,51.63
2022-12-28T11:01:32.265Z,52.05
2022-12-28T11:02:35.125Z,50.88
2022-12-28T11:03:39.345Z,50.42
2022-12-28T11:04:53.833Z,49.54
2022-12-28T11:06:09.902Z,49.33
2022-12-28T11:07:28.170Z,50.61
2022-12-28T11:08:30.320Z,50.04
2022-12-28T11:09:35.369Z,50.49
2022-12-28T11:10:38.274Z,50.45
2022-12-28T11:11:41.420Z,51.23
2022-12-28T11:12:46.191Z,51.44
2022-12-28T11:13:57.351Z,52.17
2022-12-28T11:14:59.625Z,52.71
2022-12-28T11:16:01.904Z,52.62
2022-12-28T11:17:25.237Z,53.26
2022-12-28T11:18:30.860Z,52.52
2022-12-28T11:19:37.349Z,53.33
2022-12-28T11:20:44.059Z,52.80
2022-12-28T11:21:46.216Z,53.09
2022-12-28T11:22:49.001Z,53.35
2022-12-28T11:23:52.268Z,51.74
2022-12-28T11:24:55.275Z,49.16
2022-12-28T11:25:58.434Z,48.04
2022-12-28T11:27:00.208Z,48.64
2022-12-28T11:28:12.777Z,47.49
2022-12-28T11:29:17.369Z,45.74
2022-12-28T11:30:21.368Z,44.79
2022-12-28T11:31:37.872Z,42.78
2022-12-28T11:32:46.415Z,43.01
2022-12-28T11:33:55.165Z,42.24
2022-12-28T11:34:58.550Z,41.54
2022-12-28T11:36:05.573Z,42.91
2022-12-28T11:37:16.824Z,44.96
2022-12-28T11:38:39.812Z,47.00
2022-12-28T11:39:44.302Z,46.46
2022-12-28T11:40:52.701Z,46.51
2022-12-28T11:42:37.926Z,46.85
2022-12-28T11:43:29.302Z,46.64
2022-12-28T11:44:30.999Z,46.97
2022-12-28T11:45:54.848Z,46.07
2022-12-28T11:47:05.019Z,46.16
2022-12-28T11:48:43.854Z,46.82
2022-12-28T11:49:47.741Z,45.94
2022-12-28T11:50:53.490Z,46.07
2022-12-28T11:52:17.482Z,46.39
2022-12-28T11:53:44.363Z,44.99
2022-12-28T11:54:55.497Z,46.42
2022-12-28T11:56:00.243Z,44.69
2022-12-28T11:57:02.112Z,44.42
2022-12-28T11:58:39.573Z,41.62
2022-12-28T11:59:41.203Z,40.26
2022-12-28T12:00:49.940Z,41.54
2022-12-28T12:01:53.556Z,43.24
2022-12-28T12:03:01.026Z,44.62
2022-12-28T12:04:06.200Z,44.60
2022-12-28T12:05:37.420Z,44.89
2022-12-28T12:06:48.769Z,44.30
2022-12-28T12:07:50.856Z,44.46
2022-12-28T12:08:53.384Z,43.63
2022-12-28T12:10:22.276Z,43.70
2022-12-28T12:11:29.576Z,44.50
2022-12-28T12:12:31.414Z,45.30
2022-12-28T12:13:42.654Z,45.00
2022-12-28T12:14:47.826Z,44.72
2022-12-28T12:15:50.883Z,43.73
2022-12-28T12:17:03.365Z,42.97
2022-12-28T12:18:14.374Z,42.87
2022-12-28T12:19:25.833Z,43.29
2022-12-28T12:21:02.240Z,42.25
2022-12-28T12:22:15.131Z,41.28
2022-12-28T12:23:40.527Z,41.88
2022-12-28T12:25:01.977Z,42.92
2022-12-28T12:26:20.995Z,43.38
2022-12-28T12:27:36.799Z,43.31
2022-12-28T12:28:44.410Z,43.04
2022-12-28T12:29:53.425Z,42.64
2022-12-28T12:30:56.601Z,42.56
2022-12-28T12:32:11.913Z,45.15
2022-12-28T12:33:22.485Z,42.85
2022-12-28T12:34:32.156Z,43.34
2022-12-28T12:35:57.523Z,42.83
2022-12-28T12:37:05.370Z,41.74
2022-12-28T12:38:22.231Z,40.51
2022-12-28T12:39:33.549Z,39.25
2022-12-28T12:41:03.548Z,39.53
2022-12-28T12:42:23.867Z,39.95
2022-12-28T12:43:32.522Z,40.29
2022-12-28T12:44:48.803Z,42.06
2022-12-28T12:45:57.687Z,43.41
2022-12-28T12:47:32.520Z,44.93
2022-12-28T12:48:59.413Z,47.43
2022-12-28T12:50:19.775Z,47.46
2022-12-28T12:52:06.669Z,48.71
2022-12-28T12:53:21.575Z,49.68
2022-12-28T12:54:29.264Z,50.14
2022-12-28T12:55:54.271Z,50.91
2022-12-28T12:57:05.244Z,51.67
2022-12-28T12:58:21.316Z,52.24
2022-12-28T12:59:32.036Z,52.33
2022-12-28T13:00:48.410Z,52.86
2022-12-28T13:02:19.532Z,52.52
2022-12-28T13:03:28.684Z,52.58
2022-12-28T13:04:35.501Z,52.59
2022-12-28T13:05:41.275Z,52.28
2022-12-28T13:06:44.781Z,52.92
2022-12-28T13:07:46.601Z,52.76
2022-12-28T13:08:53.415Z,53.27
2022-12-28T13:09:59.348Z,54.18
2022-12-28T13:11:02.036Z,54.18
2022-12-28T13:12:14.751Z,54.27
2022-12-28T13:13:27.659Z,53.46
2022-12-28T13:14:30.006Z,53.42
2022-12-28T13:15:32.950Z,54.01
2022-12-28T13:16:34.746Z,55.06
2022-12-28T13:17:36.611Z,54.52
2022-12-28T13:18:46.240Z,54.43
2022-12-28T13:19:48.559Z,54.50
2022-12-28T13:20:59.330Z,53.33
2022-12-28T13:22:01.284Z,53.63
2022-12-28T13:23:04.184Z,53.44
2022-12-28T13:24:39.581Z,52.10
2022-12-28T13:25:46.553Z,51.93
2022-12-28T13:26:49.100Z,51.15
2022-12-28T13:27:51.365Z,51.19
2022-12-28T13:29:02.261Z,50.54
2022-12-28T13:30:04.612Z,50.73
2022-12-28T13:31:07.253Z,50.81
2022-12-28T13:32:37.548Z,51.00
2022-12-28T13:33:39.729Z,50.59
2022-12-28T13:34:49.793Z,50.14
2022-12-28T13:36:04.212Z,50.20
2022-12-28T13:37:16.031Z,50.32
2022-12-28T13:38:18.805Z,50.10
2022-12-28T13:39:21.350Z,50.71
2022-12-28T13:40:23.222Z,50.86
2022-12-28T13:41:27.010Z,50.52
2022-12-28T13:43:18.391Z,49.51
2022-12-28T13:44:29.791Z,48.94
2022-12-28T13:45:31.814Z,50.01
2022-12-28T13:46:34.018Z,47.63
2022-12-28T13:47:42.202Z,47.26
2022-12-28T13:48:48.758Z,46.88
2022-12-28T13:50:03.326Z,46.54
2022-12-28T13:51:13.375Z,45.56
2022-12-28T13:52:23.224Z,45.13
2022-12-28T13:53:29.161Z,45.43
2022-12-28T13:54:31.723Z,46.00
2022-12-28T13:55:46.207Z,47.04
2022-12-28T13:56:48.109Z,47.66
2022-12-28T13:57:59.446Z,47.37
2022-12-28T13:59:06.751Z,48.14
2022-12-28T14:00:09.522Z,48.45
2022-12-28T14:01:18.169Z,49.60
2022-12-28T14:02:23.445Z,50.14
2022-12-28T14:03:28.624Z,51.52
2022-12-28T14:05:59.953Z,52.82
2022-12-28T14:07:02.190Z,52.11
2022-12-28T14:08:06.329Z,51.98
2022-12-28T14:09:11.725Z,52.33
2022-12-28T14:10:13.916Z,52.53
2022-12-28T14:11:16.927Z,52.50
2022-12-28T14:12:19.969Z,53.04
2022-12-28T14:13:22.465Z,53.18
2022-12-28T14:14:24.681Z,53.12
2022-12-28T14:15:26.885Z,52.63
2022-12-28T14:16:30.412Z,52.88
2022-12-28T14:17:32.729Z,52.95
2022-12-28T14:18:35.654Z,52.97
2022-12-28T14:19:38.141Z,53.16
2022-12-28T14:20:50.865Z,52.92
2022-12-28T14:21:52.631Z,53.07